KNRB/NRB METAR and TAF weather

Enter ICAO airport designator
Station Type Date Time Source
KNRB METAR 2019/02/22 23:52 UTC NOAA

KNRB 222352Z AUTO 16007KT 10SM BKN080 OVC100 22/19 A3016 RMK AO2 SLP213 T02220194 10261 20222 53010


Station Type Date Time Source
KNRB Decoded METAR 2019/02/22 23:52 UTC NOAA

MAYPORT NAVAL AIR FACILITY, FL, United States (KNRB) 30-24N 81-25W 4M
Feb 22, 2019 - 06:52 PM EST / 2019.02.22 2352 UTC
Wind: from the SSE (160 degrees) at 8 MPH (7 KT):0
Visibility: 10 mile(s):0
Sky conditions: overcast
Temperature: 72.0 F (22.2 C)
Dew Point: 66.9 F (19.4 C)
Relative Humidity: 84%
Pressure (altimeter): 30.16 in. Hg (1021 hPa)
Pressure tendency: 0.03 inches (1.0 hPa) higher than three hours ago
ob: KNRB 222352Z AUTO 16007KT 10SM BKN080 OVC100 22/19 A3016 RMK AO2 SLP213 T02220194 10261 20222 53010
cycle: 0

Station Type Date Time Source
KNRB TAF 2019/02/22 23:53 UTC NOAA

TAF KNRB 2223/2323 COR 15008KT 9999 FEW040 BKN090 QNH3012INS
FM230100 16006KT 9999 BKN090 QNH3014INS
FM230900 VRB05KT 8000 BR BKN005 QNH3014INS
TEMPO 2309/2313 0800 FG OVC003
FM231500 06008KT 9999 VCSH SCT010 BKN020 QNH3006INS AUTOMATED SENSOR METWATCH 2223 TIL 2509 T16/2310Z T22/2319Z COR 2245 FN20021


Example: see airport list